createdAt,value
2024-01-22T00:02:09.783Z,0.26
2024-01-22T00:04:37.790Z,0.40
2024-01-22T00:07:05.890Z,0.45
2024-01-22T00:09:34.305Z,0.62
2024-01-22T00:12:02.492Z,0.65
2024-01-22T00:14:30.426Z,0.65
2024-01-22T00:16:58.077Z,0.60
2024-01-22T00:19:26.005Z,0.56
2024-01-22T00:21:54.476Z,0.53
2024-01-22T00:24:22.074Z,0.61
2024-01-22T00:26:50.202Z,0.69
2024-01-22T00:29:17.818Z,0.68
2024-01-22T00:31:45.510Z,0.71
2024-01-22T00:34:13.286Z,0.62
2024-01-22T00:36:42.185Z,0.70
2024-01-22T00:39:09.827Z,0.68
2024-01-22T00:41:37.455Z,0.57
2024-01-22T00:44:05.096Z,0.65
2024-01-22T00:46:34.258Z,0.64
2024-01-22T00:49:04.194Z,0.52
2024-01-22T00:51:32.324Z,0.40
2024-01-22T00:53:59.909Z,0.30
2024-01-22T00:56:27.920Z,0.46
2024-01-22T00:58:55.471Z,0.48
2024-01-22T01:01:23.363Z,0.45
2024-01-22T01:03:51.002Z,0.42
2024-01-22T01:06:19.038Z,0.31
2024-01-22T01:08:47.093Z,0.21
2024-01-22T01:11:15.093Z,0.31
2024-01-22T01:13:42.649Z,0.48
2024-01-22T01:16:10.310Z,0.40
2024-01-22T01:18:38.105Z,0.24
2024-01-22T01:21:06.456Z,0.17
2024-01-22T01:23:35.001Z,0.15
2024-01-22T01:26:03.172Z,0.16
2024-01-22T01:28:30.938Z,0.34
2024-01-22T01:30:58.687Z,0.27
2024-01-22T01:33:27.509Z,0.32
2024-01-22T01:35:55.239Z,0.43
2024-01-22T01:38:22.837Z,0.32
2024-01-22T01:40:50.472Z,0.33
2024-01-22T01:43:21.165Z,0.17
2024-01-22T01:45:49.190Z,0.04
2024-01-22T01:48:17.133Z,0.04
2024-01-22T01:50:44.877Z,0.12
2024-01-22T01:53:15.670Z,0.26
2024-01-22T01:55:47.246Z,0.31
2024-01-22T01:58:20.544Z,0.24
2024-01-22T02:00:53.351Z,0.35
2024-01-22T02:03:21.297Z,0.21
2024-01-22T02:05:49.182Z,0.19
2024-01-22T02:08:16.794Z,0.13
2024-01-22T02:10:48.948Z,0.06
2024-01-22T02:13:16.599Z,0.15
2024-01-22T02:15:44.515Z,0.13
2024-01-22T02:18:13.191Z,-0.01
2024-01-22T02:20:41.515Z,-0.07
2024-01-22T02:23:09.455Z,-0.03
2024-01-22T02:25:37.160Z,-0.09
2024-01-22T02:28:05.289Z,-0.25
2024-01-22T02:30:33.238Z,-0.16
2024-01-22T02:33:01.233Z,-0.15
2024-01-22T02:35:28.877Z,-0.16
2024-01-22T02:37:56.553Z,-0.17
2024-01-22T02:40:24.774Z,-0.36
2024-01-22T02:42:52.302Z,-0.30
2024-01-22T02:45:20.036Z,-0.30
2024-01-22T02:47:48.222Z,-0.26
2024-01-22T02:50:16.012Z,-0.32
2024-01-22T02:52:44.528Z,-0.30
2024-01-22T02:55:12.726Z,-0.35
2024-01-22T02:57:40.259Z,-0.41
2024-01-22T03:00:08.618Z,-0.43
2024-01-22T03:02:36.380Z,-0.45
2024-01-22T03:05:04.584Z,-0.42
2024-01-22T03:07:32.086Z,-0.32
2024-01-22T03:10:00.441Z,-0.48
2024-01-22T03:12:28.041Z,-0.57
2024-01-22T03:14:55.763Z,-0.73
2024-01-22T03:17:23.311Z,-0.69
2024-01-22T03:19:51.352Z,-0.73
2024-01-22T03:22:19.476Z,-0.74
2024-01-22T03:24:48.220Z,-0.76
2024-01-22T03:27:15.973Z,-0.74
2024-01-22T03:29:44.057Z,-0.69
2024-01-22T03:32:12.155Z,-0.67
2024-01-22T03:34:40.409Z,-0.73
2024-01-22T03:37:08.158Z,-0.98
2024-01-22T03:39:35.755Z,-1.13
2024-01-22T03:42:04.212Z,-0.94
2024-01-22T03:44:31.861Z,-0.82
2024-01-22T03:46:59.707Z,-0.76
2024-01-22T03:49:27.822Z,-0.81
2024-01-22T03:51:55.833Z,-0.81
2024-01-22T03:54:23.436Z,-0.66
2024-01-22T03:56:51.491Z,-0.71
2024-01-22T03:59:19.861Z,-0.73
2024-01-22T04:01:47.441Z,-0.81
2024-01-22T04:04:15.835Z,-0.62
2024-01-22T04:06:43.635Z,-0.65
2024-01-22T04:09:11.888Z,-0.71
2024-01-22T04:11:39.795Z,-0.72
2024-01-22T04:14:07.743Z,-0.65
2024-01-22T04:16:35.363Z,-0.62
2024-01-22T04:19:03.013Z,-0.73
2024-01-22T04:21:31.772Z,-0.66
2024-01-22T04:23:59.333Z,-0.66
2024-01-22T04:26:27.380Z,-0.58
2024-01-22T04:28:55.452Z,-0.66
2024-01-22T04:31:22.986Z,-0.67
2024-01-22T04:33:50.693Z,-0.61
2024-01-22T04:36:18.714Z,-0.69
2024-01-22T04:38:46.780Z,-0.73
2024-01-22T04:41:14.487Z,-0.75
2024-01-22T04:43:44.256Z,-0.85
2024-01-22T04:46:11.997Z,-0.85
2024-01-22T04:48:40.818Z,-0.83
2024-01-22T04:51:08.547Z,-0.80
2024-01-22T04:53:37.448Z,-0.78
2024-01-22T04:56:05.377Z,-0.72
2024-01-22T04:58:32.971Z,-0.71
2024-01-22T05:01:00.602Z,-0.54
2024-01-22T05:03:28.483Z,-0.59
2024-01-22T05:05:56.291Z,-0.62
2024-01-22T05:08:24.398Z,-0.80
2024-01-22T05:10:52.003Z,-0.84
2024-01-22T05:13:20.476Z,-0.86
2024-01-22T05:15:48.085Z,-0.86
2024-01-22T05:18:16.519Z,-0.93
2024-01-22T05:20:44.934Z,-1.02
2024-01-22T05:23:12.927Z,-1.06
2024-01-22T05:25:41.724Z,-1.02
2024-01-22T05:28:09.299Z,-0.90
2024-01-22T05:30:36.952Z,-0.82
2024-01-22T05:33:05.102Z,-0.78
2024-01-22T05:35:32.714Z,-0.75
2024-01-22T05:38:00.252Z,-0.95
2024-01-22T05:40:27.812Z,-0.89
2024-01-22T05:42:55.347Z,-0.86
2024-01-22T05:45:23.171Z,-0.84
2024-01-22T05:47:51.215Z,-0.87
2024-01-22T05:50:19.461Z,-0.78
2024-01-22T05:52:47.176Z,-0.78
2024-01-22T05:55:18.535Z,-0.76
2024-01-22T05:57:48.670Z,-0.79
2024-01-22T06:00:20.034Z,-0.73
2024-01-22T06:02:48.379Z,-0.78
2024-01-22T06:05:16.544Z,-0.82
2024-01-22T06:07:44.239Z,-0.76
2024-01-22T06:10:13.579Z,-0.70
2024-01-22T06:12:42.535Z,-0.82
2024-01-22T06:15:10.795Z,-0.83
2024-01-22T06:17:38.449Z,-0.87
2024-01-22T06:20:07.510Z,-0.89
2024-01-22T06:22:36.435Z,-0.87
2024-01-22T06:25:05.347Z,-0.86
2024-01-22T06:27:33.141Z,-0.82
2024-01-22T06:30:01.305Z,-0.73
2024-01-22T06:32:30.770Z,-0.79
2024-01-22T06:34:59.160Z,-0.85
2024-01-22T06:37:26.736Z,-0.97
2024-01-22T06:39:54.820Z,-1.18
2024-01-22T06:42:27.897Z,-1.19
2024-01-22T06:45:02.594Z,-1.07
2024-01-22T06:47:31.497Z,-0.92
2024-01-22T06:49:59.566Z,-0.79
2024-01-22T06:52:27.093Z,-0.76
2024-01-22T06:54:56.684Z,-0.73
2024-01-22T06:57:24.283Z,-0.70
2024-01-22T06:59:56.199Z,-0.70
2024-01-22T07:02:28.526Z,-0.52
2024-01-22T07:04:59.381Z,-0.43
2024-01-22T07:07:27.427Z,-0.48
2024-01-22T07:09:55.168Z,-0.39
2024-01-22T07:12:22.896Z,-0.33
2024-01-22T07:14:51.011Z,-0.30
2024-01-22T07:17:22.091Z,-0.13
2024-01-22T07:19:49.713Z,-0.09
2024-01-22T07:22:18.527Z,-0.05
2024-01-22T07:24:46.089Z,0.09
2024-01-22T07:27:14.175Z,0.32
2024-01-22T07:29:42.777Z,0.43
2024-01-22T07:32:10.834Z,0.55
2024-01-22T07:34:38.567Z,0.67
2024-01-22T07:37:07.896Z,0.82
2024-01-22T07:39:35.936Z,0.89
2024-01-22T07:42:03.753Z,0.95
2024-01-22T07:44:31.306Z,1.08
2024-01-22T07:46:59.825Z,1.20
2024-01-22T07:49:27.905Z,1.27
2024-01-22T07:51:55.538Z,1.25
2024-01-22T07:54:23.446Z,1.39
2024-01-22T07:56:51.218Z,1.41
2024-01-22T07:59:19.362Z,1.57
2024-01-22T08:01:46.970Z,1.82
2024-01-22T08:04:14.669Z,1.96
2024-01-22T08:06:42.367Z,1.92
2024-01-22T08:09:10.151Z,2.09
2024-01-22T08:11:40.487Z,2.21
2024-01-22T08:14:09.229Z,2.43
2024-01-22T08:16:37.261Z,2.72
2024-01-22T08:19:04.942Z,2.61
2024-01-22T08:21:32.846Z,2.77
2024-01-22T08:24:01.455Z,3.11
2024-01-22T08:26:29.303Z,3.21
2024-01-22T08:28:57.833Z,3.12
2024-01-22T08:31:25.377Z,3.40
2024-01-22T08:33:55.598Z,3.38
2024-01-22T08:36:23.629Z,3.79
2024-01-22T08:38:51.306Z,4.07
2024-01-22T08:41:18.984Z,4.21
2024-01-22T08:43:46.564Z,4.42
2024-01-22T08:46:15.170Z,4.53
2024-01-22T08:48:43.563Z,4.67
2024-01-22T08:51:11.293Z,4.18
2024-01-22T08:53:40.617Z,4.08
2024-01-22T08:56:08.148Z,4.46
2024-01-22T08:58:35.650Z,5.05
2024-01-22T09:01:09.388Z,5.26
2024-01-22T09:03:38.307Z,5.47
2024-01-22T09:06:06.707Z,6.12
2024-01-22T09:08:37.438Z,6.73
2024-01-22T09:11:05.201Z,6.67
2024-01-22T09:13:33.250Z,6.43
2024-01-22T09:16:02.286Z,6.52
2024-01-22T09:18:30.071Z,6.59
2024-01-22T09:20:57.848Z,7.35
2024-01-22T09:23:25.483Z,7.58
2024-01-22T09:25:53.085Z,7.45
2024-01-22T09:28:22.619Z,7.00
2024-01-22T09:30:51.286Z,7.50
2024-01-22T09:33:19.675Z,7.23
2024-01-22T09:35:47.782Z,6.84
2024-01-22T09:38:15.336Z,6.18
2024-01-22T09:40:43.269Z,6.03
2024-01-22T09:43:11.408Z,6.16
2024-01-22T09:45:40.030Z,6.31
2024-01-22T09:48:09.804Z,7.01
2024-01-22T09:50:37.538Z,6.41
2024-01-22T09:53:12.812Z,7.20
2024-01-22T09:55:42.210Z,6.76
2024-01-22T09:58:14.750Z,7.44
2024-01-22T10:00:46.720Z,7.88
2024-01-22T10:03:14.422Z,8.77
2024-01-22T10:05:43.036Z,9.02
2024-01-22T10:08:10.634Z,8.71
2024-01-22T10:10:38.955Z,9.02
2024-01-22T10:13:08.941Z,9.39
2024-01-22T10:15:38.100Z,8.81
2024-01-22T10:18:10.206Z,9.36
2024-01-22T10:20:39.399Z,9.69
2024-01-22T10:23:09.310Z,9.26
2024-01-22T10:25:37.885Z,9.92
2024-01-22T10:28:10.628Z,10.16
2024-01-22T10:30:40.500Z,9.27
2024-01-22T10:33:17.372Z,9.47
2024-01-22T10:35:48.629Z,9.31
2024-01-22T10:38:20.876Z,9.47
2024-01-22T10:40:50.033Z,9.41
2024-01-22T10:43:27.664Z,9.51
2024-01-22T10:45:58.257Z,9.85
2024-01-22T10:48:38.198Z,9.71
2024-01-22T10:51:12.696Z,9.93
2024-01-22T10:53:43.078Z,10.30
2024-01-22T10:56:25.693Z,9.96
2024-01-22T10:58:58.471Z,10.13
2024-01-22T11:01:28.461Z,9.91
2024-01-22T11:03:58.622Z,10.09
2024-01-22T11:06:31.273Z,10.26
2024-01-22T11:09:02.966Z,10.28
2024-01-22T11:11:33.323Z,11.32
2024-01-22T11:14:01.454Z,11.36
2024-01-22T11:16:29.748Z,11.20
2024-01-22T11:19:02.138Z,11.13
2024-01-22T11:21:39.553Z,11.23
2024-01-22T11:24:16.431Z,11.27
2024-01-22T11:26:51.123Z,11.18
2024-01-22T11:29:29.629Z,11.49
2024-01-22T11:31:58.659Z,11.53
2024-01-22T11:34:43.051Z,11.90
2024-01-22T11:37:14.141Z,12.41
2024-01-22T11:39:47.973Z,12.21
2024-01-22T11:42:27.029Z,12.02
2024-01-22T11:44:57.710Z,11.83
2024-01-22T11:47:25.714Z,11.55
2024-01-22T11:50:02.837Z,11.12
2024-01-22T11:52:32.080Z,11.05
2024-01-22T11:55:00.532Z,10.02
2024-01-22T11:57:31.134Z,11.31
2024-01-22T12:00:13.623Z,11.83
2024-01-22T12:02:45.974Z,11.52
2024-01-22T12:05:18.916Z,11.77
2024-01-22T12:07:53.732Z,12.03
2024-01-22T12:10:29.286Z,11.89
2024-01-22T12:12:59.848Z,10.85
2024-01-22T12:15:30.541Z,11.15
2024-01-22T12:17:58.608Z,11.42
2024-01-22T12:20:27.641Z,11.85
2024-01-22T12:23:04.920Z,11.93
2024-01-22T12:25:38.668Z,11.45
2024-01-22T12:28:16.786Z,11.37
2024-01-22T12:30:46.597Z,12.04
2024-01-22T12:33:22.077Z,12.47
2024-01-22T12:35:52.169Z,12.97
2024-01-22T12:38:22.124Z,12.88
2024-01-22T12:40:58.783Z,12.80
2024-01-22T12:43:27.006Z,12.93
2024-01-22T12:46:09.528Z,13.80
2024-01-22T12:48:39.468Z,13.73
2024-01-22T12:51:09.677Z,13.62
2024-01-22T12:53:38.503Z,13.53
2024-01-22T12:56:08.145Z,14.25
2024-01-22T12:58:38.156Z,14.63
2024-01-22T13:01:06.428Z,15.35
2024-01-22T13:03:34.885Z,15.15
2024-01-22T13:06:02.686Z,15.40
2024-01-22T13:08:32.442Z,15.66
2024-01-22T13:11:00.952Z,16.02
2024-01-22T13:13:29.212Z,16.03
2024-01-22T13:16:11.405Z,15.74
2024-01-22T13:18:44.129Z,14.91
2024-01-22T13:21:14.654Z,14.39
2024-01-22T13:23:43.344Z,13.70
2024-01-22T13:26:11.155Z,13.00
2024-01-22T13:28:39.423Z,12.70
2024-01-22T13:31:07.468Z,13.29
2024-01-22T13:33:38.169Z,14.07
2024-01-22T13:36:10.731Z,13.03
2024-01-22T13:38:42.810Z,13.44
2024-01-22T13:41:10.784Z,13.32
2024-01-22T13:43:38.825Z,13.59
2024-01-22T13:46:08.460Z,14.13
2024-01-22T13:48:38.650Z,13.73
2024-01-22T13:51:06.812Z,13.98
2024-01-22T13:53:34.880Z,14.03
2024-01-22T13:56:04.047Z,13.15
2024-01-22T13:58:32.841Z,13.24
2024-01-22T14:01:00.916Z,13.29
2024-01-22T14:03:28.537Z,13.62
2024-01-22T14:05:56.654Z,14.37
2024-01-22T14:08:24.305Z,14.53
2024-01-22T14:10:51.851Z,14.49
2024-01-22T14:13:21.814Z,14.34
2024-01-22T14:15:49.710Z,15.66
2024-01-22T14:18:18.263Z,16.00
2024-01-22T14:20:47.741Z,16.61
2024-01-22T14:23:18.383Z,16.32
2024-01-22T14:25:46.605Z,15.60
2024-01-22T14:28:14.757Z,15.42
2024-01-22T14:30:42.660Z,14.38
2024-01-22T14:33:10.641Z,13.27
2024-01-22T14:35:39.861Z,11.90
2024-01-22T14:38:09.090Z,12.08
2024-01-22T14:40:39.921Z,12.30
2024-01-22T14:43:08.347Z,12.24
2024-01-22T14:45:36.009Z,12.04
2024-01-22T14:48:05.383Z,11.84
2024-01-22T14:50:33.988Z,11.58
2024-01-22T14:53:04.828Z,10.64
2024-01-22T14:55:36.491Z,10.60
2024-01-22T14:58:04.807Z,11.94
2024-01-22T15:00:37.047Z,12.68
2024-01-22T15:03:05.976Z,12.52
2024-01-22T15:05:38.501Z,11.56
2024-01-22T15:08:09.779Z,10.98
2024-01-22T15:10:39.964Z,10.70
2024-01-22T15:13:09.183Z,10.10
2024-01-22T15:15:37.978Z,9.90
2024-01-22T15:18:08.089Z,9.32
2024-01-22T15:20:35.996Z,9.44
2024-01-22T15:23:04.292Z,9.02
2024-01-22T15:25:32.365Z,8.84
2024-01-22T15:28:00.400Z,8.59
2024-01-22T15:30:28.535Z,8.70
2024-01-22T15:32:57.711Z,8.70
2024-01-22T15:35:25.609Z,8.49
2024-01-22T15:37:53.810Z,8.44
2024-01-22T15:40:24.844Z,8.32
2024-01-22T15:42:52.623Z,8.15
2024-01-22T15:45:20.261Z,8.02
2024-01-22T15:47:50.304Z,8.03
2024-01-22T15:50:20.314Z,7.72
2024-01-22T15:52:48.329Z,7.65
2024-01-22T15:55:17.248Z,7.46
2024-01-22T15:57:44.766Z,7.25
2024-01-22T16:00:15.237Z,7.25
2024-01-22T16:02:42.807Z,7.03
2024-01-22T16:05:11.473Z,6.86
2024-01-22T16:07:41.363Z,6.89
2024-01-22T16:10:09.620Z,7.04
2024-01-22T16:12:38.227Z,7.05
2024-01-22T16:15:07.916Z,6.97
2024-01-22T16:17:35.652Z,7.01
2024-01-22T16:20:03.452Z,7.19
2024-01-22T16:22:35.074Z,7.11
2024-01-22T16:25:05.970Z,7.03
2024-01-22T16:27:34.207Z,7.02
2024-01-22T16:30:03.617Z,6.93
2024-01-22T16:32:31.329Z,6.83
2024-01-22T16:35:00.124Z,6.86
2024-01-22T16:37:29.973Z,6.75
2024-01-22T16:39:58.791Z,6.75
2024-01-22T16:42:27.019Z,6.72
2024-01-22T16:44:54.697Z,6.71
2024-01-22T16:47:22.266Z,6.72
2024-01-22T16:49:49.984Z,6.76
2024-01-22T16:52:18.066Z,6.69
2024-01-22T16:54:46.052Z,6.76
2024-01-22T16:57:14.966Z,6.70
2024-01-22T16:59:42.596Z,6.81
2024-01-22T17:02:10.380Z,6.87
2024-01-22T17:04:38.171Z,6.68
2024-01-22T17:07:12.578Z,6.76
2024-01-22T17:09:41.032Z,6.67
2024-01-22T17:12:10.026Z,6.55
2024-01-22T17:14:37.896Z,6.58
2024-01-22T17:17:06.538Z,6.60
2024-01-22T17:19:34.187Z,6.56
2024-01-22T17:22:02.572Z,6.33
2024-01-22T17:24:31.280Z,6.27
2024-01-22T17:26:59.438Z,6.36
2024-01-22T17:29:28.320Z,6.50
2024-01-22T17:31:56.275Z,6.57
2024-01-22T17:34:24.557Z,6.48
2024-01-22T17:36:52.844Z,6.51
2024-01-22T17:39:20.536Z,6.59
2024-01-22T17:41:49.245Z,6.62
2024-01-22T17:44:16.881Z,6.50
2024-01-22T17:46:44.946Z,6.46
2024-01-22T17:49:12.690Z,6.50
2024-01-22T17:51:40.415Z,6.43
2024-01-22T17:54:09.207Z,6.55
2024-01-22T17:56:39.269Z,6.59
2024-01-22T17:59:07.712Z,6.68
2024-01-22T18:01:37.264Z,6.63
2024-01-22T18:04:05.111Z,6.68
2024-01-22T18:06:32.867Z,6.67
2024-01-22T18:09:00.619Z,6.72
2024-01-22T18:11:29.370Z,6.83
2024-01-22T18:13:58.019Z,6.86
2024-01-22T18:16:25.739Z,6.92
2024-01-22T18:18:53.900Z,6.81
2024-01-22T18:21:21.583Z,6.77
2024-01-22T18:23:49.544Z,6.73
2024-01-22T18:26:17.087Z,6.64
2024-01-22T18:28:44.960Z,6.68
2024-01-22T18:31:14.938Z,6.72
2024-01-22T18:33:44.224Z,6.68
2024-01-22T18:36:12.090Z,6.74
2024-01-22T18:38:39.761Z,6.74
2024-01-22T18:41:07.263Z,6.79
2024-01-22T18:43:35.901Z,6.85
2024-01-22T18:46:09.747Z,6.84
2024-01-22T18:48:41.754Z,6.82
2024-01-22T18:51:09.462Z,6.71
2024-01-22T18:53:37.367Z,6.68
2024-01-22T18:56:05.160Z,6.74
2024-01-22T18:58:33.689Z,6.69
2024-01-22T19:01:02.966Z,6.60
2024-01-22T19:03:30.831Z,6.49
2024-01-22T19:06:01.950Z,6.44
2024-01-22T19:08:30.260Z,6.44
2024-01-22T19:10:58.682Z,6.38
2024-01-22T19:13:26.282Z,6.43
2024-01-22T19:15:54.325Z,6.47
2024-01-22T19:18:22.848Z,6.62
2024-01-22T19:20:50.531Z,6.51
2024-01-22T19:23:18.539Z,6.57
2024-01-22T19:25:47.013Z,6.49
2024-01-22T19:28:15.030Z,6.35
2024-01-22T19:30:42.592Z,6.18
2024-01-22T19:33:10.341Z,6.23
2024-01-22T19:35:38.209Z,6.20
2024-01-22T19:38:05.958Z,6.10
2024-01-22T19:40:35.554Z,5.93
2024-01-22T19:43:03.360Z,5.71
2024-01-22T19:45:31.203Z,5.98
2024-01-22T19:48:00.376Z,6.01
2024-01-22T19:50:30.199Z,5.89
2024-01-22T19:52:58.238Z,5.86
2024-01-22T19:55:25.872Z,5.88
2024-01-22T19:57:53.652Z,5.91
2024-01-22T20:00:21.655Z,5.76
2024-01-22T20:02:49.338Z,5.57
2024-01-22T20:05:17.026Z,5.49
2024-01-22T20:07:46.649Z,5.41
2024-01-22T20:10:14.690Z,5.30
2024-01-22T20:12:43.347Z,5.30
2024-01-22T20:15:11.028Z,5.22
2024-01-22T20:17:39.150Z,5.32
2024-01-22T20:20:08.552Z,5.43
2024-01-22T20:22:36.148Z,5.46
2024-01-22T20:25:04.215Z,5.63
2024-01-22T20:27:32.317Z,5.56
2024-01-22T20:30:01.896Z,5.60
2024-01-22T20:32:29.966Z,5.63
2024-01-22T20:34:58.962Z,5.47
2024-01-22T20:37:28.790Z,5.53
2024-01-22T20:39:57.378Z,5.56
2024-01-22T20:42:25.432Z,5.62
2024-01-22T20:44:53.204Z,5.83
2024-01-22T20:47:21.026Z,5.70
2024-01-22T20:49:48.770Z,5.83
2024-01-22T20:52:16.468Z,5.99
2024-01-22T20:54:45.142Z,5.94
2024-01-22T20:57:12.735Z,6.01
2024-01-22T20:59:40.504Z,5.99
2024-01-22T21:02:08.075Z,6.01
2024-01-22T21:04:36.495Z,6.01
2024-01-22T21:07:05.905Z,6.14
2024-01-22T21:09:35.326Z,6.11
2024-01-22T21:12:03.793Z,6.10
2024-01-22T21:14:31.450Z,6.18
2024-01-22T21:17:00.207Z,6.14
2024-01-22T21:19:28.247Z,6.19
2024-01-22T21:21:55.937Z,5.97
2024-01-22T21:24:23.929Z,5.98
2024-01-22T21:26:53.093Z,5.86
2024-01-22T21:29:21.696Z,5.97
2024-01-22T21:31:50.249Z,5.88
2024-01-22T21:34:18.781Z,5.96
2024-01-22T21:36:46.695Z,5.93
2024-01-22T21:39:15.312Z,5.97
2024-01-22T21:41:43.904Z,5.93
2024-01-22T21:44:11.486Z,6.07
2024-01-22T21:46:39.493Z,6.10
2024-01-22T21:49:07.302Z,6.22
2024-01-22T21:51:34.937Z,6.21
2024-01-22T21:54:03.099Z,5.99
2024-01-22T21:56:31.205Z,5.89
2024-01-22T21:59:00.167Z,5.83
2024-01-22T22:01:31.584Z,5.97
2024-01-22T22:03:59.643Z,5.92
2024-01-22T22:06:27.507Z,5.91
2024-01-22T22:08:55.363Z,5.86
2024-01-22T22:11:23.549Z,5.81
2024-01-22T22:13:51.109Z,6.03
2024-01-22T22:16:18.814Z,6.13
2024-01-22T22:18:51.530Z,6.11
2024-01-22T22:21:19.926Z,6.05
2024-01-22T22:23:47.533Z,6.01
2024-01-22T22:26:15.149Z,6.05
2024-01-22T22:28:42.685Z,6.03
2024-01-22T22:31:11.274Z,5.93
2024-01-22T22:33:39.034Z,5.75
2024-01-22T22:36:07.837Z,5.94
2024-01-22T22:38:35.813Z,5.79
2024-01-22T22:41:03.419Z,5.92
2024-01-22T22:43:31.012Z,5.94
2024-01-22T22:46:00.913Z,5.93
2024-01-22T22:48:29.143Z,6.04
2024-01-22T22:50:56.811Z,5.92
2024-01-22T22:53:24.762Z,6.03
2024-01-22T22:55:52.910Z,6.06
2024-01-22T22:58:21.388Z,6.05
2024-01-22T23:00:49.049Z,6.11
2024-01-22T23:03:16.845Z,6.08
2024-01-22T23:05:44.451Z,6.16
2024-01-22T23:08:12.100Z,6.24
2024-01-22T23:10:39.694Z,6.14
2024-01-22T23:13:07.220Z,6.17
2024-01-22T23:15:35.248Z,6.13
2024-01-22T23:18:02.948Z,6.17
2024-01-22T23:20:30.657Z,6.16
2024-01-22T23:22:58.552Z,5.77
2024-01-22T23:25:28.164Z,5.41
2024-01-22T23:27:56.164Z,5.49
2024-01-22T23:30:26.144Z,5.71
2024-01-22T23:32:54.009Z,5.63
2024-01-22T23:35:21.765Z,5.45
2024-01-22T23:37:59.898Z,5.30
2024-01-22T23:40:27.814Z,5.34
2024-01-22T23:42:55.420Z,5.12
2024-01-22T23:45:23.400Z,5.13
2024-01-22T23:47:51.431Z,5.03
2024-01-22T23:50:19.147Z,5.17
2024-01-22T23:52:49.227Z,5.41
2024-01-22T23:55:16.875Z,5.60
2024-01-22T23:57:44.525Z,5.56
